sensor_id;sensor_type;location;lat;lon;timestamp;P1;durP1;ratioP1;P2;durP2;ratioP2
66272;SDS011;58450;52.150;4.466;2023-09-07T00:00:15;4.68;;;3.58;;
66272;SDS011;58450;52.150;4.466;2023-09-07T00:02:43;5.47;;;3.50;;
66272;SDS011;58450;52.150;4.466;2023-09-07T00:05:10;5.93;;;3.47;;
66272;SDS011;58450;52.150;4.466;2023-09-07T00:07:39;5.35;;;3.38;;
66272;SDS011;58450;52.150;4.466;2023-09-07T00:10:06;5.35;;;3.38;;
66272;SDS011;58450;52.150;4.466;2023-09-07T00:12:36;5.00;;;3.50;;
66272;SDS011;58450;52.150;4.466;2023-09-07T00:15:05;5.93;;;3.42;;
66272;SDS011;58450;52.150;4.466;2023-09-07T00:17:34;4.85;;;3.28;;
66272;SDS011;58450;52.150;4.466;2023-09-07T00:20:02;4.68;;;3.05;;
66272;SDS011;58450;52.150;4.466;2023-09-07T00:22:36;5.05;;;3.50;;
66272;SDS011;58450;52.150;4.466;2023-09-07T00:25:04;6.22;;;3.55;;
66272;SDS011;58450;52.150;4.466;2023-09-07T00:27:32;4.78;;;3.42;;
66272;SDS011;58450;52.150;4.466;2023-09-07T00:30:02;4.57;;;3.40;;
66272;SDS011;58450;52.150;4.466;2023-09-07T00:32:32;6.18;;;3.65;;
66272;SDS011;58450;52.150;4.466;2023-09-07T00:35:00;4.50;;;3.10;;
66272;SDS011;58450;52.150;4.466;2023-09-07T00:37:27;4.55;;;3.40;;
66272;SDS011;58450;52.150;4.466;2023-09-07T00:39:55;4.32;;;3.28;;
66272;SDS011;58450;52.150;4.466;2023-09-07T00:42:23;4.90;;;3.38;;
66272;SDS011;58450;52.150;4.466;2023-09-07T00:44:50;5.53;;;3.65;;
66272;SDS011;58450;52.150;4.466;2023-09-07T00:47:19;6.13;;;3.38;;
66272;SDS011;58450;52.150;4.466;2023-09-07T00:49:48;5.40;;;3.53;;
66272;SDS011;58450;52.150;4.466;2023-09-07T00:52:16;5.40;;;3.55;;
66272;SDS011;58450;52.150;4.466;2023-09-07T00:54:46;5.00;;;3.58;;
66272;SDS011;58450;52.150;4.466;2023-09-07T00:57:13;5.25;;;3.35;;
66272;SDS011;58450;52.150;4.466;2023-09-07T00:59:41;5.15;;;3.50;;
66272;SDS011;58450;52.150;4.466;2023-09-07T01:02:09;5.30;;;3.50;;
66272;SDS011;58450;52.150;4.466;2023-09-07T01:04:38;7.03;;;3.67;;
66272;SDS011;58450;52.150;4.466;2023-09-07T01:07:09;4.35;;;3.38;;
66272;SDS011;58450;52.150;4.466;2023-09-07T01:09:45;5.10;;;3.67;;
66272;SDS011;58450;52.150;4.466;2023-09-07T01:12:18;5.50;;;3.50;;
66272;SDS011;58450;52.150;4.466;2023-09-07T01:14:46;4.65;;;3.20;;
66272;SDS011;58450;52.150;4.466;2023-09-07T01:17:13;4.70;;;3.20;;
66272;SDS011;58450;52.150;4.466;2023-09-07T01:19:43;5.88;;;3.83;;
66272;SDS011;58450;52.150;4.466;2023-09-07T01:22:16;5.95;;;3.78;;
66272;SDS011;58450;52.150;4.466;2023-09-07T01:24:48;5.60;;;3.50;;
66272;SDS011;58450;52.150;4.466;2023-09-07T01:27:19;5.03;;;3.63;;
66272;SDS011;58450;52.150;4.466;2023-09-07T01:29:47;4.88;;;3.38;;
66272;SDS011;58450;52.150;4.466;2023-09-07T01:32:14;4.50;;;3.38;;
66272;SDS011;58450;52.150;4.466;2023-09-07T01:34:42;5.07;;;3.70;;
66272;SDS011;58450;52.150;4.466;2023-09-07T01:37:09;5.43;;;3.38;;
66272;SDS011;58450;52.150;4.466;2023-09-07T01:39:38;5.05;;;3.55;;
66272;SDS011;58450;52.150;4.466;2023-09-07T01:42:06;6.25;;;3.92;;
66272;SDS011;58450;52.150;4.466;2023-09-07T01:44:33;4.90;;;3.50;;
66272;SDS011;58450;52.150;4.466;2023-09-07T01:47:02;5.57;;;3.40;;
66272;SDS011;58450;52.150;4.466;2023-09-07T01:49:30;6.13;;;3.53;;
66272;SDS011;58450;52.150;4.466;2023-09-07T01:51:57;5.68;;;3.72;;
66272;SDS011;58450;52.150;4.466;2023-09-07T01:54:25;5.07;;;3.38;;
66272;SDS011;58450;52.150;4.466;2023-09-07T01:56:54;5.30;;;3.85;;
66272;SDS011;58450;52.150;4.466;2023-09-07T01:59:22;5.38;;;3.45;;
66272;SDS011;58450;52.150;4.466;2023-09-07T02:01:49;5.40;;;3.83;;
66272;SDS011;58450;52.150;4.466;2023-09-07T02:04:17;5.93;;;3.65;;
66272;SDS011;58450;52.150;4.466;2023-09-07T02:06:44;5.30;;;3.85;;
66272;SDS011;58450;52.150;4.466;2023-09-07T02:09:12;6.40;;;3.95;;
66272;SDS011;58450;52.150;4.466;2023-09-07T02:11:40;5.63;;;3.50;;
66272;SDS011;58450;52.150;4.466;2023-09-07T02:14:08;4.90;;;3.65;;
66272;SDS011;58450;52.150;4.466;2023-09-07T02:16:36;5.50;;;3.67;;
66272;SDS011;58450;52.150;4.466;2023-09-07T02:19:04;5.07;;;3.75;;
66272;SDS011;58450;52.150;4.466;2023-09-07T02:21:33;6.82;;;4.00;;
66272;SDS011;58450;52.150;4.466;2023-09-07T02:24:00;6.25;;;4.13;;
66272;SDS011;58450;52.150;4.466;2023-09-07T02:26:28;6.20;;;4.15;;
66272;SDS011;58450;52.150;4.466;2023-09-07T02:28:56;7.45;;;4.32;;
66272;SDS011;58450;52.150;4.466;2023-09-07T02:31:25;5.57;;;3.92;;
66272;SDS011;58450;52.150;4.466;2023-09-07T02:33:53;5.95;;;3.95;;
66272;SDS011;58450;52.150;4.466;2023-09-07T02:36:21;5.72;;;3.78;;
66272;SDS011;58450;52.150;4.466;2023-09-07T02:38:49;7.18;;;4.18;;
66272;SDS011;58450;52.150;4.466;2023-09-07T02:41:16;6.22;;;4.13;;
66272;SDS011;58450;52.150;4.466;2023-09-07T02:43:44;6.35;;;3.95;;
66272;SDS011;58450;52.150;4.466;2023-09-07T02:46:11;6.40;;;3.97;;
66272;SDS011;58450;52.150;4.466;2023-09-07T02:48:40;6.88;;;4.18;;
66272;SDS011;58450;52.150;4.466;2023-09-07T02:51:08;6.22;;;4.07;;
66272;SDS011;58450;52.150;4.466;2023-09-07T02:53:35;5.43;;;3.85;;
66272;SDS011;58450;52.150;4.466;2023-09-07T02:56:03;6.18;;;4.00;;
66272;SDS011;58450;52.150;4.466;2023-09-07T02:58:30;5.88;;;3.80;;
66272;SDS011;58450;52.150;4.466;2023-09-07T03:00:59;4.43;;;3.60;;
66272;SDS011;58450;52.150;4.466;2023-09-07T03:03:26;5.90;;;4.10;;
66272;SDS011;58450;52.150;4.466;2023-09-07T03:05:56;5.65;;;3.92;;
66272;SDS011;58450;52.150;4.466;2023-09-07T03:08:24;6.22;;;4.45;;
66272;SDS011;58450;52.150;4.466;2023-09-07T03:10:51;6.45;;;4.38;;
66272;SDS011;58450;52.150;4.466;2023-09-07T03:13:19;5.70;;;4.18;;
66272;SDS011;58450;52.150;4.466;2023-09-07T03:15:46;5.45;;;3.97;;
66272;SDS011;58450;52.150;4.466;2023-09-07T03:18:14;6.20;;;4.30;;
66272;SDS011;58450;52.150;4.466;2023-09-07T03:20:42;5.95;;;3.90;;
66272;SDS011;58450;52.150;4.466;2023-09-07T03:23:11;6.78;;;4.35;;
66272;SDS011;58450;52.150;4.466;2023-09-07T03:25:38;5.95;;;4.25;;
66272;SDS011;58450;52.150;4.466;2023-09-07T03:28:06;5.50;;;4.15;;
66272;SDS011;58450;52.150;4.466;2023-09-07T03:30:34;6.45;;;4.18;;
66272;SDS011;58450;52.150;4.466;2023-09-07T03:33:01;6.10;;;4.28;;
66272;SDS011;58450;52.150;4.466;2023-09-07T03:35:30;5.75;;;4.00;;
66272;SDS011;58450;52.150;4.466;2023-09-07T03:37:58;6.20;;;4.40;;
66272;SDS011;58450;52.150;4.466;2023-09-07T03:40:27;6.45;;;4.57;;
66272;SDS011;58450;52.150;4.466;2023-09-07T03:42:54;6.53;;;4.30;;
66272;SDS011;58450;52.150;4.466;2023-09-07T03:45:22;6.65;;;4.68;;
66272;SDS011;58450;52.150;4.466;2023-09-07T03:47:49;7.65;;;4.80;;
66272;SDS011;58450;52.150;4.466;2023-09-07T03:50:17;7.28;;;4.55;;
66272;SDS011;58450;52.150;4.466;2023-09-07T03:52:44;7.05;;;4.40;;
66272;SDS011;58450;52.150;4.466;2023-09-07T03:55:12;5.90;;;4.20;;
66272;SDS011;58450;52.150;4.466;2023-09-07T03:57:41;5.97;;;4.00;;
66272;SDS011;58450;52.150;4.466;2023-09-07T04:00:09;7.35;;;4.63;;
66272;SDS011;58450;52.150;4.466;2023-09-07T04:02:38;6.63;;;4.57;;
66272;SDS011;58450;52.150;4.466;2023-09-07T04:05:06;6.53;;;4.78;;
66272;SDS011;58450;52.150;4.466;2023-09-07T04:07:36;7.03;;;4.85;;
66272;SDS011;58450;52.150;4.466;2023-09-07T04:10:04;5.93;;;4.13;;
66272;SDS011;58450;52.150;4.466;2023-09-07T04:12:33;7.47;;;4.85;;
66272;SDS011;58450;52.150;4.466;2023-09-07T04:15:02;6.50;;;4.82;;
66272;SDS011;58450;52.150;4.466;2023-09-07T04:17:31;6.88;;;4.63;;
66272;SDS011;58450;52.150;4.466;2023-09-07T04:20:06;6.97;;;5.00;;
66272;SDS011;58450;52.150;4.466;2023-09-07T04:22:38;6.97;;;5.22;;
66272;SDS011;58450;52.150;4.466;2023-09-07T04:25:06;7.22;;;5.05;;
66272;SDS011;58450;52.150;4.466;2023-09-07T04:27:34;7.45;;;5.32;;
66272;SDS011;58450;52.150;4.466;2023-09-07T04:30:03;7.30;;;5.10;;
66272;SDS011;58450;52.150;4.466;2023-09-07T04:32:32;6.90;;;5.22;;
66272;SDS011;58450;52.150;4.466;2023-09-07T04:35:00;8.30;;;5.32;;
66272;SDS011;58450;52.150;4.466;2023-09-07T04:37:27;7.38;;;5.20;;
66272;SDS011;58450;52.150;4.466;2023-09-07T04:39:55;6.55;;;4.55;;
66272;SDS011;58450;52.150;4.466;2023-09-07T04:42:22;7.38;;;4.90;;
66272;SDS011;58450;52.150;4.466;2023-09-07T04:44:50;7.63;;;4.72;;
66272;SDS011;58450;52.150;4.466;2023-09-07T04:47:19;7.78;;;5.00;;
66272;SDS011;58450;52.150;4.466;2023-09-07T04:49:48;8.52;;;5.78;;
66272;SDS011;58450;52.150;4.466;2023-09-07T04:52:15;7.53;;;5.47;;
66272;SDS011;58450;52.150;4.466;2023-09-07T04:54:43;7.50;;;5.50;;
66272;SDS011;58450;52.150;4.466;2023-09-07T04:57:12;8.02;;;5.35;;
66272;SDS011;58450;52.150;4.466;2023-09-07T04:59:42;7.50;;;4.78;;
66272;SDS011;58450;52.150;4.466;2023-09-07T05:02:10;8.25;;;5.35;;
66272;SDS011;58450;52.150;4.466;2023-09-07T05:04:39;7.07;;;5.10;;
66272;SDS011;58450;52.150;4.466;2023-09-07T05:07:07;7.35;;;5.05;;
66272;SDS011;58450;52.150;4.466;2023-09-07T05:09:34;7.68;;;5.00;;
66272;SDS011;58450;52.150;4.466;2023-09-07T05:12:02;7.78;;;4.95;;
66272;SDS011;58450;52.150;4.466;2023-09-07T05:14:30;6.80;;;5.10;;
66272;SDS011;58450;52.150;4.466;2023-09-07T05:16:58;7.80;;;5.20;;
66272;SDS011;58450;52.150;4.466;2023-09-07T05:19:25;8.35;;;5.78;;
66272;SDS011;58450;52.150;4.466;2023-09-07T05:21:54;8.63;;;5.40;;
66272;SDS011;58450;52.150;4.466;2023-09-07T05:24:22;7.85;;;5.30;;
66272;SDS011;58450;52.150;4.466;2023-09-07T05:26:49;9.30;;;5.60;;
66272;SDS011;58450;52.150;4.466;2023-09-07T05:29:17;7.97;;;5.68;;
66272;SDS011;58450;52.150;4.466;2023-09-07T05:31:46;8.18;;;5.07;;
66272;SDS011;58450;52.150;4.466;2023-09-07T05:34:13;8.32;;;5.60;;
66272;SDS011;58450;52.150;4.466;2023-09-07T05:36:41;8.13;;;5.55;;
66272;SDS011;58450;52.150;4.466;2023-09-07T05:39:11;9.00;;;5.05;;
66272;SDS011;58450;52.150;4.466;2023-09-07T05:41:39;8.50;;;4.97;;
66272;SDS011;58450;52.150;4.466;2023-09-07T05:44:06;8.18;;;5.15;;
66272;SDS011;58450;52.150;4.466;2023-09-07T05:46:34;8.23;;;5.07;;
66272;SDS011;58450;52.150;4.466;2023-09-07T05:49:01;8.13;;;4.82;;
66272;SDS011;58450;52.150;4.466;2023-09-07T05:51:29;8.52;;;5.20;;
66272;SDS011;58450;52.150;4.466;2023-09-07T05:53:56;8.27;;;5.35;;
66272;SDS011;58450;52.150;4.466;2023-09-07T05:56:26;7.70;;;5.53;;
66272;SDS011;58450;52.150;4.466;2023-09-07T05:58:53;9.25;;;5.13;;
66272;SDS011;58450;52.150;4.466;2023-09-07T06:01:21;6.97;;;4.85;;
66272;SDS011;58450;52.150;4.466;2023-09-07T06:03:49;7.72;;;4.70;;
66272;SDS011;58450;52.150;4.466;2023-09-07T06:06:16;7.90;;;5.30;;
66272;SDS011;58450;52.150;4.466;2023-09-07T06:08:44;8.27;;;5.28;;
66272;SDS011;58450;52.150;4.466;2023-09-07T06:11:12;8.52;;;5.45;;
66272;SDS011;58450;52.150;4.466;2023-09-07T06:13:40;7.78;;;4.95;;
66272;SDS011;58450;52.150;4.466;2023-09-07T06:16:08;7.80;;;5.03;;
66272;SDS011;58450;52.150;4.466;2023-09-07T06:18:36;7.45;;;5.05;;
66272;SDS011;58450;52.150;4.466;2023-09-07T06:21:03;7.93;;;5.00;;
66272;SDS011;58450;52.150;4.466;2023-09-07T06:23:31;6.65;;;4.07;;
66272;SDS011;58450;52.150;4.466;2023-09-07T06:25:59;7.00;;;4.72;;
66272;SDS011;58450;52.150;4.466;2023-09-07T06:28:27;6.25;;;4.57;;
66272;SDS011;58450;52.150;4.466;2023-09-07T06:30:56;6.25;;;4.60;;
66272;SDS011;58450;52.150;4.466;2023-09-07T06:33:24;7.72;;;4.93;;
66272;SDS011;58450;52.150;4.466;2023-09-07T06:35:51;6.95;;;4.55;;
66272;SDS011;58450;52.150;4.466;2023-09-07T06:38:19;6.60;;;4.45;;
66272;SDS011;58450;52.150;4.466;2023-09-07T06:40:47;7.63;;;4.97;;
66272;SDS011;58450;52.150;4.466;2023-09-07T06:43:15;5.82;;;4.53;;
66272;SDS011;58450;52.150;4.466;2023-09-07T06:45:43;8.60;;;4.63;;
66272;SDS011;58450;52.150;4.466;2023-09-07T06:48:12;6.90;;;4.88;;
66272;SDS011;58450;52.150;4.466;2023-09-07T06:50:40;6.07;;;3.70;;
66272;SDS011;58450;52.150;4.466;2023-09-07T06:53:08;7.18;;;4.30;;
66272;SDS011;58450;52.150;4.466;2023-09-07T06:55:35;6.63;;;4.30;;
66272;SDS011;58450;52.150;4.466;2023-09-07T06:58:03;6.18;;;3.67;;
66272;SDS011;58450;52.150;4.466;2023-09-07T07:00:30;6.32;;;4.30;;
66272;SDS011;58450;52.150;4.466;2023-09-07T07:02:58;5.93;;;4.00;;
66272;SDS011;58450;52.150;4.466;2023-09-07T07:05:27;6.72;;;4.20;;
66272;SDS011;58450;52.150;4.466;2023-09-07T07:07:55;7.10;;;4.03;;
66272;SDS011;58450;52.150;4.466;2023-09-07T07:10:22;6.97;;;4.30;;
66272;SDS011;58450;52.150;4.466;2023-09-07T07:12:50;5.75;;;3.75;;
66272;SDS011;58450;52.150;4.466;2023-09-07T07:15:18;6.00;;;3.78;;
66272;SDS011;58450;52.150;4.466;2023-09-07T07:17:45;6.40;;;3.95;;
66272;SDS011;58450;52.150;4.466;2023-09-07T07:20:13;6.60;;;4.10;;
66272;SDS011;58450;52.150;4.466;2023-09-07T07:22:42;7.57;;;4.28;;
66272;SDS011;58450;52.150;4.466;2023-09-07T07:25:10;6.35;;;3.80;;
66272;SDS011;58450;52.150;4.466;2023-09-07T07:27:37;6.30;;;4.07;;
66272;SDS011;58450;52.150;4.466;2023-09-07T07:30:05;6.63;;;3.60;;
66272;SDS011;58450;52.150;4.466;2023-09-07T07:32:34;6.35;;;3.60;;
66272;SDS011;58450;52.150;4.466;2023-09-07T07:35:01;5.63;;;3.92;;
66272;SDS011;58450;52.150;4.466;2023-09-07T07:37:29;7.97;;;3.50;;
66272;SDS011;58450;52.150;4.466;2023-09-07T07:39:59;5.90;;;3.50;;
66272;SDS011;58450;52.150;4.466;2023-09-07T07:42:27;5.47;;;3.60;;
66272;SDS011;58450;52.150;4.466;2023-09-07T07:44:54;5.40;;;3.03;;
66272;SDS011;58450;52.150;4.466;2023-09-07T07:47:22;6.53;;;3.50;;
66272;SDS011;58450;52.150;4.466;2023-09-07T07:49:52;8.93;;;3.30;;
66272;SDS011;58450;52.150;4.466;2023-09-07T07:52:19;4.57;;;3.00;;
66272;SDS011;58450;52.150;4.466;2023-09-07T07:54:47;6.40;;;3.30;;
66272;SDS011;58450;52.150;4.466;2023-09-07T07:57:16;5.35;;;2.90;;
66272;SDS011;58450;52.150;4.466;2023-09-07T07:59:44;4.82;;;2.97;;
66272;SDS011;58450;52.150;4.466;2023-09-07T08:02:11;5.13;;;3.40;;
66272;SDS011;58450;52.150;4.466;2023-09-07T08:04:39;6.70;;;3.28;;
66272;SDS011;58450;52.150;4.466;2023-09-07T08:07:07;5.05;;;3.08;;
66272;SDS011;58450;52.150;4.466;2023-09-07T08:09:35;4.85;;;2.70;;
66272;SDS011;58450;52.150;4.466;2023-09-07T08:12:04;5.60;;;3.10;;
66272;SDS011;58450;52.150;4.466;2023-09-07T08:14:33;6.50;;;3.17;;
66272;SDS011;58450;52.150;4.466;2023-09-07T08:17:02;5.35;;;2.97;;
66272;SDS011;58450;52.150;4.466;2023-09-07T08:19:30;5.68;;;3.13;;
66272;SDS011;58450;52.150;4.466;2023-09-07T08:21:58;4.40;;;2.85;;
66272;SDS011;58450;52.150;4.466;2023-09-07T08:24:25;4.97;;;2.90;;
66272;SDS011;58450;52.150;4.466;2023-09-07T08:26:53;5.55;;;2.95;;
66272;SDS011;58450;52.150;4.466;2023-09-07T08:29:22;5.78;;;3.03;;
66272;SDS011;58450;52.150;4.466;2023-09-07T08:31:53;3.97;;;2.60;;
66272;SDS011;58450;52.150;4.466;2023-09-07T08:34:21;5.35;;;3.08;;
66272;SDS011;58450;52.150;4.466;2023-09-07T08:36:49;6.55;;;2.85;;
66272;SDS011;58450;52.150;4.466;2023-09-07T08:39:20;4.20;;;2.70;;
66272;SDS011;58450;52.150;4.466;2023-09-07T08:41:49;6.63;;;3.20;;
66272;SDS011;58450;52.150;4.466;2023-09-07T08:44:17;5.93;;;3.00;;
66272;SDS011;58450;52.150;4.466;2023-09-07T08:46:46;3.75;;;2.45;;
66272;SDS011;58450;52.150;4.466;2023-09-07T08:49:18;3.90;;;2.40;;
66272;SDS011;58450;52.150;4.466;2023-09-07T08:51:46;5.75;;;2.83;;
66272;SDS011;58450;52.150;4.466;2023-09-07T08:54:15;4.53;;;2.80;;
66272;SDS011;58450;52.150;4.466;2023-09-07T08:56:43;4.20;;;2.80;;
66272;SDS011;58450;52.150;4.466;2023-09-07T08:59:12;3.80;;;2.58;;
66272;SDS011;58450;52.150;4.466;2023-09-07T09:01:40;3.65;;;2.70;;
66272;SDS011;58450;52.150;4.466;2023-09-07T09:04:08;4.95;;;2.38;;
66272;SDS011;58450;52.150;4.466;2023-09-07T09:06:37;5.18;;;2.78;;
66272;SDS011;58450;52.150;4.466;2023-09-07T09:09:04;5.30;;;2.90;;
66272;SDS011;58450;52.150;4.466;2023-09-07T09:11:32;5.07;;;2.70;;
66272;SDS011;58450;52.150;4.466;2023-09-07T09:14:00;3.90;;;2.38;;
66272;SDS011;58450;52.150;4.466;2023-09-07T09:16:32;4.18;;;2.40;;
66272;SDS011;58450;52.150;4.466;2023-09-07T09:18:59;3.47;;;2.40;;
66272;SDS011;58450;52.150;4.466;2023-09-07T09:21:28;4.40;;;2.70;;
66272;SDS011;58450;52.150;4.466;2023-09-07T09:23:57;4.63;;;2.60;;
66272;SDS011;58450;52.150;4.466;2023-09-07T09:26:26;3.88;;;2.50;;
66272;SDS011;58450;52.150;4.466;2023-09-07T09:28:55;4.90;;;2.25;;
66272;SDS011;58450;52.150;4.466;2023-09-07T09:31:23;3.42;;;2.20;;
66272;SDS011;58450;52.150;4.466;2023-09-07T09:33:51;4.00;;;2.35;;
66272;SDS011;58450;52.150;4.466;2023-09-07T09:36:19;4.60;;;2.17;;
66272;SDS011;58450;52.150;4.466;2023-09-07T09:38:48;4.22;;;2.20;;
66272;SDS011;58450;52.150;4.466;2023-09-07T09:41:20;4.47;;;2.30;;
66272;SDS011;58450;52.150;4.466;2023-09-07T09:43:48;4.43;;;2.38;;
66272;SDS011;58450;52.150;4.466;2023-09-07T09:46:17;3.72;;;2.10;;
66272;SDS011;58450;52.150;4.466;2023-09-07T09:48:45;4.07;;;2.13;;
66272;SDS011;58450;52.150;4.466;2023-09-07T09:51:13;3.13;;;2.15;;
66272;SDS011;58450;52.150;4.466;2023-09-07T09:53:42;3.58;;;2.20;;
66272;SDS011;58450;52.150;4.466;2023-09-07T09:56:11;3.92;;;2.10;;
66272;SDS011;58450;52.150;4.466;2023-09-07T09:58:40;4.20;;;2.10;;
66272;SDS011;58450;52.150;4.466;2023-09-07T10:01:07;5.03;;;2.50;;
66272;SDS011;58450;52.150;4.466;2023-09-07T10:03:40;3.60;;;2.45;;
66272;SDS011;58450;52.150;4.466;2023-09-07T10:06:17;3.70;;;2.30;;
66272;SDS011;58450;52.150;4.466;2023-09-07T10:08:52;3.47;;;2.05;;
66272;SDS011;58450;52.150;4.466;2023-09-07T10:11:29;4.43;;;2.00;;
66272;SDS011;58450;52.150;4.466;2023-09-07T10:14:00;4.88;;;2.65;;
66272;SDS011;58450;52.150;4.466;2023-09-07T10:16:40;3.30;;;2.20;;
66272;SDS011;58450;52.150;4.466;2023-09-07T10:19:15;4.18;;;2.33;;
66272;SDS011;58450;52.150;4.466;2023-09-07T10:21:44;6.32;;;2.92;;
66272;SDS011;58450;52.150;4.466;2023-09-07T10:24:12;3.38;;;2.17;;
66272;SDS011;58450;52.150;4.466;2023-09-07T10:26:58;3.97;;;2.35;;
66272;SDS011;58450;52.150;4.466;2023-09-07T10:29:39;5.28;;;2.30;;
66272;SDS011;58450;52.150;4.466;2023-09-07T10:32:08;4.47;;;2.40;;
66272;SDS011;58450;52.150;4.466;2023-09-07T10:34:38;3.50;;;2.17;;
66272;SDS011;58450;52.150;4.466;2023-09-07T10:37:09;3.80;;;2.17;;
66272;SDS011;58450;52.150;4.466;2023-09-07T10:39:39;4.70;;;2.20;;
66272;SDS011;58450;52.150;4.466;2023-09-07T10:42:08;4.32;;;2.28;;
66272;SDS011;58450;52.150;4.466;2023-09-07T10:44:49;3.78;;;2.30;;
66272;SDS011;58450;52.150;4.466;2023-09-07T10:47:16;2.53;;;1.98;;
66272;SDS011;58450;52.150;4.466;2023-09-07T10:49:44;3.53;;;2.10;;
66272;SDS011;58450;52.150;4.466;2023-09-07T10:52:12;3.22;;;2.05;;
66272;SDS011;58450;52.150;4.466;2023-09-07T10:54:40;4.65;;;2.20;;
66272;SDS011;58450;52.150;4.466;2023-09-07T10:57:08;4.28;;;2.20;;
66272;SDS011;58450;52.150;4.466;2023-09-07T10:59:36;4.28;;;2.10;;
66272;SDS011;58450;52.150;4.466;2023-09-07T11:02:05;5.10;;;2.15;;
66272;SDS011;58450;52.150;4.466;2023-09-07T11:04:34;3.35;;;1.92;;
66272;SDS011;58450;52.150;4.466;2023-09-07T11:07:01;3.28;;;1.83;;
66272;SDS011;58450;52.150;4.466;2023-09-07T11:09:30;3.20;;;2.10;;
66272;SDS011;58450;52.150;4.466;2023-09-07T11:12:03;3.33;;;1.85;;
66272;SDS011;58450;52.150;4.466;2023-09-07T11:14:32;3.28;;;1.75;;
66272;SDS011;58450;52.150;4.466;2023-09-07T11:17:00;2.33;;;1.80;;
66272;SDS011;58450;52.150;4.466;2023-09-07T11:19:32;2.72;;;2.10;;
66272;SDS011;58450;52.150;4.466;2023-09-07T11:22:00;3.42;;;2.17;;
66272;SDS011;58450;52.150;4.466;2023-09-07T11:24:30;3.65;;;2.38;;
66272;SDS011;58450;52.150;4.466;2023-09-07T11:26:58;3.40;;;2.20;;
66272;SDS011;58450;52.150;4.466;2023-09-07T11:29:26;3.83;;;2.05;;
66272;SDS011;58450;52.150;4.466;2023-09-07T11:31:53;3.28;;;2.13;;
66272;SDS011;58450;52.150;4.466;2023-09-07T11:34:21;2.90;;;2.10;;
66272;SDS011;58450;52.150;4.466;2023-09-07T11:36:50;4.47;;;2.28;;
66272;SDS011;58450;52.150;4.466;2023-09-07T11:39:17;3.92;;;2.20;;
66272;SDS011;58450;52.150;4.466;2023-09-07T11:41:45;2.85;;;2.08;;
66272;SDS011;58450;52.150;4.466;2023-09-07T11:44:13;2.20;;;1.80;;
66272;SDS011;58450;52.150;4.466;2023-09-07T11:46:40;2.50;;;1.95;;
66272;SDS011;58450;52.150;4.466;2023-09-07T11:49:08;2.88;;;2.00;;
66272;SDS011;58450;52.150;4.466;2023-09-07T11:51:35;3.15;;;1.90;;
66272;SDS011;58450;52.150;4.466;2023-09-07T11:54:05;4.20;;;2.35;;
66272;SDS011;58450;52.150;4.466;2023-09-07T11:56:32;4.72;;;1.90;;
66272;SDS011;58450;52.150;4.466;2023-09-07T12:01:32;4.97;;;2.17;;
66272;SDS011;58450;52.150;4.466;2023-09-07T12:04:00;3.45;;;2.10;;
66272;SDS011;58450;52.150;4.466;2023-09-07T12:06:30;3.38;;;2.00;;
66272;SDS011;58450;52.150;4.466;2023-09-07T12:08:58;5.18;;;1.90;;
66272;SDS011;58450;52.150;4.466;2023-09-07T12:11:27;3.22;;;1.77;;
66272;SDS011;58450;52.150;4.466;2023-09-07T12:13:56;3.75;;;1.90;;
66272;SDS011;58450;52.150;4.466;2023-09-07T12:16:24;5.47;;;2.00;;
66272;SDS011;58450;52.150;4.466;2023-09-07T12:18:53;2.95;;;2.03;;
66272;SDS011;58450;52.150;4.466;2023-09-07T12:21:21;3.13;;;1.90;;
66272;SDS011;58450;52.150;4.466;2023-09-07T12:23:48;3.55;;;1.80;;
66272;SDS011;58450;52.150;4.466;2023-09-07T12:26:16;3.22;;;1.77;;
66272;SDS011;58450;52.150;4.466;2023-09-07T12:28:47;3.65;;;1.90;;
66272;SDS011;58450;52.150;4.466;2023-09-07T12:31:15;6.15;;;1.92;;
66272;SDS011;58450;52.150;4.466;2023-09-07T12:33:42;2.85;;;1.73;;
66272;SDS011;58450;52.150;4.466;2023-09-07T12:36:10;3.83;;;2.10;;
66272;SDS011;58450;52.150;4.466;2023-09-07T12:38:38;2.58;;;1.92;;
66272;SDS011;58450;52.150;4.466;2023-09-07T12:41:05;2.55;;;1.70;;
66272;SDS011;58450;52.150;4.466;2023-09-07T12:43:33;3.28;;;1.88;;
66272;SDS011;58450;52.150;4.466;2023-09-07T12:46:02;2.88;;;1.50;;
66272;SDS011;58450;52.150;4.466;2023-09-07T12:48:30;3.17;;;2.00;;
66272;SDS011;58450;52.150;4.466;2023-09-07T12:50:57;5.10;;;2.10;;
66272;SDS011;58450;52.150;4.466;2023-09-07T12:53:25;3.35;;;1.98;;
66272;SDS011;58450;52.150;4.466;2023-09-07T12:55:53;2.70;;;1.80;;
66272;SDS011;58450;52.150;4.466;2023-09-07T12:58:21;3.45;;;1.88;;
66272;SDS011;58450;52.150;4.466;2023-09-07T13:00:48;3.05;;;2.17;;
66272;SDS011;58450;52.150;4.466;2023-09-07T13:03:18;2.78;;;1.80;;
66272;SDS011;58450;52.150;4.466;2023-09-07T13:05:46;3.03;;;1.80;;
66272;SDS011;58450;52.150;4.466;2023-09-07T13:08:15;2.85;;;1.92;;
66272;SDS011;58450;52.150;4.466;2023-09-07T13:10:43;4.65;;;1.80;;
66272;SDS011;58450;52.150;4.466;2023-09-07T13:13:10;3.10;;;1.80;;
66272;SDS011;58450;52.150;4.466;2023-09-07T13:15:38;5.47;;;1.90;;
66272;SDS011;58450;52.150;4.466;2023-09-07T13:18:05;3.50;;;1.80;;
66272;SDS011;58450;52.150;4.466;2023-09-07T13:20:34;3.17;;;2.00;;
66272;SDS011;58450;52.150;4.466;2023-09-07T13:23:02;3.13;;;1.80;;
66272;SDS011;58450;52.150;4.466;2023-09-07T13:25:30;2.42;;;1.75;;
66272;SDS011;58450;52.150;4.466;2023-09-07T13:27:58;4.30;;;1.80;;
66272;SDS011;58450;52.150;4.466;2023-09-07T13:30:25;3.38;;;1.80;;
66272;SDS011;58450;52.150;4.466;2023-09-07T13:32:53;2.50;;;1.70;;
66272;SDS011;58450;52.150;4.466;2023-09-07T13:35:21;3.75;;;2.20;;
66272;SDS011;58450;52.150;4.466;2023-09-07T13:37:49;3.13;;;1.90;;
66272;SDS011;58450;52.150;4.466;2023-09-07T13:40:18;2.92;;;2.10;;
66272;SDS011;58450;52.150;4.466;2023-09-07T13:42:49;2.65;;;1.77;;
66272;SDS011;58450;52.150;4.466;2023-09-07T13:45:17;3.17;;;1.77;;
66272;SDS011;58450;52.150;4.466;2023-09-07T13:47:44;3.67;;;2.00;;
66272;SDS011;58450;52.150;4.466;2023-09-07T13:50:15;4.32;;;2.20;;
66272;SDS011;58450;52.150;4.466;2023-09-07T13:52:43;2.60;;;2.00;;
66272;SDS011;58450;52.150;4.466;2023-09-07T13:55:11;2.72;;;1.98;;
66272;SDS011;58450;52.150;4.466;2023-09-07T13:57:39;2.65;;;1.80;;
66272;SDS011;58450;52.150;4.466;2023-09-07T14:00:07;2.90;;;1.88;;
66272;SDS011;58450;52.150;4.466;2023-09-07T14:02:35;3.78;;;2.10;;
66272;SDS011;58450;52.150;4.466;2023-09-07T14:05:02;2.95;;;1.90;;
66272;SDS011;58450;52.150;4.466;2023-09-07T14:07:32;3.53;;;2.17;;
66272;SDS011;58450;52.150;4.466;2023-09-07T14:09:59;4.05;;;2.17;;
66272;SDS011;58450;52.150;4.466;2023-09-07T14:12:29;2.28;;;2.00;;
66272;SDS011;58450;52.150;4.466;2023-09-07T14:14:56;2.83;;;2.10;;
66272;SDS011;58450;52.150;4.466;2023-09-07T14:17:24;3.95;;;2.22;;
66272;SDS011;58450;52.150;4.466;2023-09-07T14:19:51;3.33;;;2.28;;
66272;SDS011;58450;52.150;4.466;2023-09-07T14:22:19;2.15;;;1.90;;
66272;SDS011;58450;52.150;4.466;2023-09-07T14:24:46;3.22;;;2.22;;
66272;SDS011;58450;52.150;4.466;2023-09-07T14:27:14;2.60;;;2.00;;
66272;SDS011;58450;52.150;4.466;2023-09-07T14:29:42;3.85;;;2.25;;
66272;SDS011;58450;52.150;4.466;2023-09-07T14:32:10;4.15;;;2.10;;
66272;SDS011;58450;52.150;4.466;2023-09-07T14:34:37;3.53;;;2.17;;
66272;SDS011;58450;52.150;4.466;2023-09-07T14:37:05;4.22;;;2.30;;
66272;SDS011;58450;52.150;4.466;2023-09-07T14:39:32;5.18;;;2.58;;
66272;SDS011;58450;52.150;4.466;2023-09-07T14:42:01;3.78;;;2.75;;
66272;SDS011;58450;52.150;4.466;2023-09-07T14:44:31;3.80;;;2.50;;
66272;SDS011;58450;52.150;4.466;2023-09-07T14:47:00;4.35;;;2.70;;
66272;SDS011;58450;52.150;4.466;2023-09-07T14:49:30;4.25;;;2.60;;
66272;SDS011;58450;52.150;4.466;2023-09-07T14:51:57;5.25;;;2.75;;
66272;SDS011;58450;52.150;4.466;2023-09-07T14:54:25;4.75;;;2.60;;
66272;SDS011;58450;52.150;4.466;2023-09-07T14:56:52;3.25;;;2.50;;